Time;durP1;ratioP1;P1;durP2;ratioP2;P2;SDS_P1;SDS_P2;PMS_P1;PMS_P2;Temp;Humidity;BMP_temperature;BMP_pressure;BME280_temperature;BME280_humidity;BME280_pressure;Samples;Min_cycle;Max_cycle;Signal;HPM_P1;HPM_P2
2022/06/11 00:01:32;;;;;;;7.50;6.77;;;16.80;75.00;;;;;;5034065;28;20438;-73
2022/06/11 00:04:03;;;;;;;8.47;7.60;;;16.80;85.10;;;;;;5033797;28;20461;-67
2022/06/11 00:06:31;;;;;;;8.10;7.40;;;16.90;86.00;;;;;;5033217;28;20387;-73
2022/06/11 00:08:57;;;;;;;7.80;7.10;;;16.90;93.40;;;;;;5031930;28;20465;-69
2022/06/11 00:11:24;;;;;;;8.50;7.80;;;16.90;95.80;;;;;;5032450;28;20790;-69
2022/06/11 00:13:51;;;;;;;8.50;7.60;;;16.90;98.00;;;;;;5033674;28;20417;-69
2022/06/11 00:16:19;;;;;;;7.70;7.07;;;17.00;99.90;;;;;;5032988;28;20430;-71
2022/06/11 00:18:46;;;;;;;7.67;6.30;;;17.00;99.90;;;;;;5038837;28;20456;-74
2022/06/11 00:21:13;;;;;;;7.80;7.00;;;17.00;99.90;;;;;;5053578;28;20521;-69
2022/06/11 00:23:40;;;;;;;7.77;6.97;;;17.00;99.90;;;;;;5053308;28;20587;-74
2022/06/11 00:26:07;;;;;;;8.37;6.53;;;17.00;99.90;;;;;;5052960;28;20506;-74
2022/06/11 00:28:33;;;;;;;7.73;6.70;;;17.00;99.90;;;;;;5052004;28;20410;-69
2022/06/11 00:30:59;;;;;;;7.07;6.37;;;16.90;99.90;;;;;;5053300;28;20394;-74
2022/06/11 00:33:25;;;;;;;7.33;6.73;;;16.90;99.90;;;;;;5036486;28;20945;-74
2022/06/11 00:35:51;;;;;;;7.67;6.87;;;16.90;99.90;;;;;;5033492;28;20395;-74
2022/06/11 00:38:18;;;;;;;7.90;7.20;;;16.90;99.90;;;;;;5032370;28;20429;-74
2022/06/11 00:40:46;;;;;;;15.13;10.30;;;16.90;99.90;;;;;;5033326;28;20168;-74
2022/06/11 00:43:17;;;;;;;12.00;10.30;;;17.00;99.90;;;;;;5033250;28;20846;-73
2022/06/11 00:45:51;;;;;;;8.80;7.90;;;17.00;99.90;;;;;;5032998;28;20402;-69
2022/06/11 00:48:27;;;;;;;12.13;7.10;;;17.00;99.90;;;;;;5032362;28;20421;-74
2022/06/11 00:51:06;;;;;;;8.23;7.53;;;17.00;99.90;;;;;;5053059;28;20472;-74
2022/06/11 00:53:43;;;;;;;9.83;7.10;;;17.00;99.90;;;;;;5053337;28;20455;-74
2022/06/11 00:56:35;;;;;;;10.90;7.43;;;17.00;99.90;;;;;;5053145;28;20758;-74
2022/06/11 00:59:03;;;;;;;8.70;7.70;;;16.90;99.90;;;;;;5052274;28;20523;-73
2022/06/11 01:01:29;;;;;;;7.00;6.40;;;17.00;99.90;;;;;;5052988;28;20501;-70
2022/06/11 01:03:58;;;;;;;7.93;6.87;;;16.90;99.90;;;;;;5052773;28;20544;-69
2022/06/11 01:06:42;;;;;;;7.37;6.67;;;17.00;99.90;;;;;;5050930;28;20194;-74
2022/06/11 01:09:15;;;;;;;10.17;9.13;;;17.00;99.90;;;;;;5052960;28;20413;-69
2022/06/11 01:11:53;;;;;;;10.43;7.93;;;17.00;99.90;;;;;;5053022;28;20416;-69
2022/06/11 01:14:40;;;;;;;8.10;7.30;;;17.00;99.90;;;;;;5053040;28;20397;-74
2022/06/11 01:17:25;;;;;;;11.37;9.30;;;17.00;99.90;;;;;;5051990;28;20576;-74
2022/06/11 01:20:15;;;;;;;9.33;8.40;;;17.00;99.90;;;;;;5051816;28;20429;-69
2022/06/11 01:22:58;;;;;;;11.40;9.80;;;17.00;99.90;;;;;;5051314;28;20794;-69
2022/06/11 01:25:39;;;;;;;13.70;9.57;;;17.00;99.90;;;;;;5052854;28;20509;-74
2022/06/11 01:28:34;;;;;;;11.40;10.30;;;17.00;99.90;;;;;;5051871;28;20463;-69
2022/06/11 01:31:11;;;;;;;11.10;9.93;;;17.00;99.90;;;;;;5052075;28;20416;-73
2022/06/11 01:33:48;;;;;;;10.87;9.77;;;17.00;99.90;;;;;;5051501;28;20401;-69
2022/06/11 01:36:32;;;;;;;10.77;9.67;;;17.00;99.90;;;;;;5051606;28;20416;-74
2022/06/11 01:39:12;;;;;;;11.77;8.80;;;17.00;99.90;;;;;;5039752;28;20460;-74
2022/06/11 01:42:06;;;;;;;11.50;10.50;;;17.00;99.90;;;;;;5036490;28;20406;-73
2022/06/11 01:44:37;;;;;;;11.80;10.03;;;17.00;99.90;;;;;;5036493;28;21019;-74
2022/06/11 01:47:03;;;;;;;12.50;10.93;;;17.00;99.90;;;;;;5035577;28;20512;-74
2022/06/11 01:49:29;;;;;;;8.10;7.40;;;17.00;99.90;;;;;;5036175;28;20957;-74
2022/06/11 01:52:07;;;;;;;9.30;8.40;;;16.90;99.90;;;;;;5036432;28;20430;-69
2022/06/11 01:54:33;;;;;;;9.63;8.37;;;16.90;99.90;;;;;;5035186;28;20179;-71
2022/06/11 01:57:25;;;;;;;9.70;8.80;;;16.90;99.90;;;;;;5035002;28;20750;-74
2022/06/11 01:59:50;;;;;;;13.80;10.57;;;16.90;99.90;;;;;;5036112;28;20187;-69
2022/06/11 02:02:35;;;;;;;11.03;10.03;;;16.90;99.90;;;;;;5036204;28;20399;-69
2022/06/11 02:05:21;;;;;;;9.77;8.40;;;16.80;99.90;;;;;;5036152;28;20199;-69
2022/06/11 02:08:11;;;;;;;8.97;8.10;;;16.80;99.90;;;;;;5033770;28;20415;-74
2022/06/11 02:10:46;;;;;;;9.90;8.90;;;16.80;99.90;;;;;;5036271;28;20432;-69
2022/06/11 02:13:27;;;;;;;9.50;8.53;;;16.80;99.90;;;;;;5035738;28;20405;-69
2022/06/11 02:16:11;;;;;;;9.00;8.10;;;16.80;99.90;;;;;;5036018;28;20746;-69
2022/06/11 02:18:38;;;;;;;10.50;8.23;;;16.80;99.90;;;;;;5035066;28;20430;-68
2022/06/11 02:21:13;;;;;;;9.97;8.00;;;16.80;99.90;;;;;;5035867;28;20489;-74
2022/06/11 02:24:00;;;;;;;9.53;8.53;;;16.70;99.90;;;;;;5035538;28;20962;-73
2022/06/11 02:26:30;;;;;;;9.60;8.70;;;16.70;99.90;;;;;;5035549;28;20762;-69
2022/06/11 02:28:58;;;;;;;9.53;8.57;;;16.70;99.90;;;;;;5035319;28;20449;-73
2022/06/11 02:31:29;;;;;;;10.93;9.07;;;16.70;99.90;;;;;;5035499;28;20422;-69
2022/06/11 02:33:55;;;;;;;10.23;8.50;;;16.60;99.90;;;;;;5035604;28;20541;-69
2022/06/11 02:36:27;;;;;;;9.03;8.10;;;16.60;99.90;;;;;;5035169;28;20520;-68
2022/06/11 02:38:54;;;;;;;10.40;8.67;;;16.60;99.90;;;;;;5035013;28;20422;-74
2022/06/11 02:41:24;;;;;;;12.37;9.77;;;16.50;99.90;;;;;;5035495;28;20399;-74
2022/06/11 02:43:50;;;;;;;15.23;10.10;;;16.60;99.90;;;;;;5033689;28;20962;-73
2022/06/11 02:47:02;;;;;;;9.80;8.80;;;16.50;99.90;;;;;;5034042;28;20825;-74
2022/06/11 02:49:03;;;;;;;10.63;9.53;;;16.50;99.90;;;;;;5033260;28;20457;-69
2022/06/11 02:51:30;;;;;;;10.67;9.43;;;16.50;99.90;;;;;;5035148;28;20401;-74
2022/06/11 02:53:57;;;;;;;10.60;9.33;;;16.50;99.90;;;;;;5035150;28;20394;-69
2022/06/11 02:56:23;;;;;;;11.17;10.10;;;16.50;99.90;;;;;;5033524;28;20428;-69
2022/06/11 02:58:49;;;;;;;12.47;9.30;;;16.50;99.90;;;;;;5033078;28;21021;-69
2022/06/11 03:01:16;;;;;;;12.03;10.77;;;16.50;99.90;;;;;;5035933;28;20267;-74
2022/06/11 03:03:42;;;;;;;11.53;10.33;;;16.50;99.90;;;;;;5052249;28;20198;-69
2022/06/11 03:06:08;;;;;;;18.53;10.23;;;16.50;99.90;;;;;;5054358;28;20405;-70
2022/06/11 03:08:34;;;;;;;10.50;9.40;;;16.40;99.90;;;;;;5052600;28;20548;-69
2022/06/11 03:11:00;;;;;;;10.80;9.73;;;16.50;99.90;;;;;;5054775;28;20394;-68
2022/06/11 03:13:27;;;;;;;13.70;9.70;;;16.40;99.90;;;;;;5053491;28;20179;-69
2022/06/11 03:15:53;;;;;;;9.33;8.27;;;16.40;99.90;;;;;;5054690;28;20755;-69
2022/06/11 03:18:20;;;;;;;10.77;9.70;;;16.30;99.90;;;;;;5040720;28;20461;-74
2022/06/11 03:20:46;;;;;;;11.37;9.03;;;16.30;99.90;;;;;;5034626;28;20910;-69
2022/06/11 03:23:12;;;;;;;9.07;8.27;;;16.30;99.90;;;;;;5034215;28;20445;-74
2022/06/11 03:25:38;;;;;;;10.47;8.80;;;16.30;99.90;;;;;;5038152;28;20429;-69
2022/06/11 03:28:13;;;;;;;11.70;8.80;;;16.30;99.90;;;;;;5053494;28;20918;-69
2022/06/11 03:30:38;;;;;;;10.57;9.50;;;16.20;99.90;;;;;;5053669;28;20178;-68
2022/06/11 03:33:05;;;;;;;9.60;8.80;;;16.30;99.90;;;;;;5054442;28;20406;-74
2022/06/11 03:35:31;;;;;;;9.70;8.83;;;16.20;99.90;;;;;;5036200;28;20254;-69
2022/06/11 03:37:57;;;;;;;10.20;9.30;;;16.20;99.90;;;;;;5032427;28;20767;-69
2022/06/11 03:40:24;;;;;;;10.60;9.60;;;16.20;99.90;;;;;;5034007;28;20414;-74
2022/06/11 03:42:50;;;;;;;9.53;8.47;;;16.30;99.90;;;;;;5034073;28;20171;-73
2022/06/11 03:45:17;;;;;;;9.87;8.23;;;16.30;99.90;;;;;;5033003;28;20402;-68
2022/06/11 03:47:43;;;;;;;11.90;9.93;;;16.30;99.90;;;;;;5033167;28;20755;-69
2022/06/11 03:50:31;;;;;;;10.80;9.70;;;16.40;99.90;;;;;;5034385;28;20499;-69
2022/06/11 03:52:59;;;;;;;18.23;10.50;;;16.40;99.90;;;;;;5033875;28;20422;-69
2022/06/11 03:55:26;;;;;;;11.83;10.07;;;16.40;99.90;;;;;;5034123;28;20953;-74
2022/06/11 03:57:52;;;;;;;11.97;10.30;;;16.50;99.90;;;;;;5032596;28;20425;-68
2022/06/11 04:01:14;;;;;;;11.00;9.90;;;16.50;99.90;;;;;;5032987;28;20429;-69
2022/06/11 04:03:10;;;;;;;17.00;10.73;;;16.60;99.90;;;;;;5033675;28;20446;-68
2022/06/11 04:05:37;;;;;;;10.27;9.27;;;16.60;99.90;;;;;;5033969;28;20421;-74
2022/06/11 04:08:04;;;;;;;14.10;9.60;;;16.60;99.90;;;;;;5033082;28;20776;-74
2022/06/11 04:10:29;;;;;;;11.07;9.90;;;16.60;99.90;;;;;;5033851;28;20409;-74
2022/06/11 04:12:56;;;;;;;12.93;11.20;;;16.60;99.90;;;;;;5033789;28;20887;-74
2022/06/11 04:15:21;;;;;;;12.10;10.90;;;16.50;99.90;;;;;;5032522;28;20527;-69
2022/06/11 04:17:47;;;;;;;13.37;9.67;;;16.50;99.90;;;;;;5031340;28;20407;-68
2022/06/11 04:20:14;;;;;;;11.60;9.80;;;16.60;99.90;;;;;;5032633;28;20207;-73
2022/06/11 04:22:41;;;;;;;11.20;10.10;;;16.60;99.90;;;;;;5033519;28;20480;-67
2022/06/11 04:25:07;;;;;;;11.17;10.13;;;16.60;99.90;;;;;;5032458;28;20546;-72
2022/06/11 04:27:34;;;;;;;15.07;11.13;;;16.70;99.90;;;;;;5032848;28;20415;-73
2022/06/11 04:29:59;;;;;;;10.63;9.53;;;16.70;99.90;;;;;;5033460;28;20414;-72
2022/06/11 04:32:27;;;;;;;11.53;10.30;;;16.70;99.90;;;;;;5033533;28;20402;-72
2022/06/11 04:34:54;;;;;;;12.50;10.43;;;16.80;99.90;;;;;;5033106;28;20183;-72
2022/06/11 04:37:22;;;;;;;12.83;10.33;;;16.80;99.90;;;;;;5031244;28;20406;-69
2022/06/11 04:39:52;;;;;;;12.10;10.77;;;16.80;99.90;;;;;;5033459;28;20507;-67
2022/06/11 04:42:18;;;;;;;12.20;10.30;;;16.80;99.90;;;;;;5033446;28;20419;-69
2022/06/11 04:44:45;;;;;;;11.83;10.63;;;16.90;99.90;;;;;;5033224;28;20922;-69
2022/06/11 04:47:14;;;;;;;10.80;9.70;;;16.90;99.90;;;;;;5032528;28;20395;-73
2022/06/11 04:49:40;;;;;;;13.83;12.60;;;17.00;99.90;;;;;;5031917;28;20432;-68
2022/06/11 04:52:07;;;;;;;11.73;10.63;;;17.00;99.90;;;;;;5031596;28;20405;-69
2022/06/11 04:54:32;;;;;;;12.80;11.63;;;17.00;99.90;;;;;;5033110;28;20176;-68
2022/06/11 04:56:58;;;;;;;12.07;10.63;;;17.10;99.90;;;;;;5032736;28;20997;-74
2022/06/11 04:59:25;;;;;;;11.43;10.33;;;17.10;99.90;;;;;;5033136;28;20715;-69
2022/06/11 05:01:51;;;;;;;12.20;10.97;;;17.10;99.90;;;;;;5033199;28;20406;-68
2022/06/11 05:04:17;;;;;;;11.93;10.77;;;17.20;99.90;;;;;;5033191;28;20438;-74
2022/06/11 05:06:45;;;;;;;11.83;10.63;;;17.20;99.90;;;;;;5031178;28;20176;-74
2022/06/11 05:09:14;;;;;;;13.50;12.10;;;17.30;99.90;;;;;;5032930;28;20419;-74
2022/06/11 05:11:41;;;;;;;18.30;12.10;;;17.30;99.90;;;;;;5033386;28;20831;-69
2022/06/11 05:14:07;;;;;;;12.97;11.50;;;17.40;99.90;;;;;;5037250;28;20433;-68
2022/06/11 05:16:35;;;;;;;11.17;10.07;;;17.50;99.90;;;;;;5035882;28;20777;-73
2022/06/11 05:19:02;;;;;;;12.33;10.80;;;17.50;99.90;;;;;;5036801;28;20193;-68
2022/06/11 05:21:27;;;;;;;15.60;11.33;;;17.50;99.90;;;;;;5035607;28;20437;-68
2022/06/11 05:23:53;;;;;;;14.27;12.30;;;17.60;99.90;;;;;;5035579;28;20454;-73
2022/06/11 05:26:26;;;;;;;13.13;10.47;;;17.60;99.90;;;;;;5036494;28;20630;-74
2022/06/11 05:28:52;;;;;;;14.63;11.00;;;17.70;99.90;;;;;;5035955;28;20241;-73
2022/06/11 05:31:18;;;;;;;14.43;10.70;;;17.70;99.90;;;;;;5037486;28;21063;-69
2022/06/11 05:33:45;;;;;;;14.00;11.17;;;17.70;99.90;;;;;;5037416;28;20191;-68
2022/06/11 05:36:13;;;;;;;15.90;12.57;;;17.80;99.90;;;;;;5036461;28;20394;-70
2022/06/11 05:38:39;;;;;;;11.77;10.60;;;17.80;99.90;;;;;;5035781;28;20931;-68
2022/06/11 05:41:04;;;;;;;13.27;11.23;;;17.90;99.90;;;;;;5036553;28;20747;-69
2022/06/11 05:43:30;;;;;;;14.43;12.10;;;18.00;99.90;;;;;;5036240;28;20533;-74
2022/06/11 05:45:58;;;;;;;14.37;11.13;;;18.10;99.90;;;;;;5036158;28;20210;-74
2022/06/11 05:48:32;;;;;;;14.17;12.77;;;18.20;99.90;;;;;;5036709;28;20648;-69
2022/06/11 05:50:59;;;;;;;15.43;11.03;;;18.30;99.90;;;;;;5056239;28;20397;-73
2022/06/11 05:53:28;;;;;;;14.47;11.50;;;18.50;99.90;;;;;;5056197;28;20433;-74
2022/06/11 05:55:57;;;;;;;12.50;11.30;;;18.50;99.90;;;;;;5056241;28;20907;-74
2022/06/11 05:58:31;;;;;;;14.07;11.93;;;18.60;99.90;;;;;;5055247;28;20475;-68
2022/06/11 06:00:58;;;;;;;17.20;12.33;;;18.70;99.90;;;;;;5055672;28;20409;-74
2022/06/11 06:03:23;;;;;;;12.70;11.50;;;18.70;99.90;;;;;;5044560;28;20489;-73
2022/06/11 06:05:49;;;;;;;12.63;10.57;;;18.80;99.90;;;;;;5040743;28;20459;-74
2022/06/11 06:08:15;;;;;;;13.77;11.77;;;18.70;99.90;;;;;;5055105;28;20546;-70
2022/06/11 06:10:40;;;;;;;13.10;11.13;;;18.70;99.90;;;;;;5056078;28;20822;-67
2022/06/11 06:13:45;;;;;;;13.10;11.70;;;18.80;99.90;;;;;;5055925;28;20173;-71
2022/06/11 06:15:53;;;;;;;21.47;12.67;;;18.90;99.90;;;;;;5055723;28;20177;-68
2022/06/11 06:18:20;;;;;;;12.27;11.17;;;19.00;99.90;;;;;;5052712;28;20449;-67
2022/06/11 06:20:47;;;;;;;12.00;10.90;;;19.10;99.90;;;;;;5054353;28;20429;-67
2022/06/11 06:23:13;;;;;;;13.10;11.90;;;19.10;99.90;;;;;;5054979;28;20446;-67
2022/06/11 06:25:39;;;;;;;21.60;12.60;;;19.20;99.20;;;;;;5055584;28;20389;-69
2022/06/11 06:28:06;;;;;;;11.40;10.10;;;19.30;88.40;;;;;;5054519;28;20540;-67
2022/06/11 06:30:32;;;;;;;12.90;11.23;;;19.20;82.60;;;;;;5051565;28;20163;-66
2022/06/11 06:32:57;;;;;;;12.57;11.00;;;19.20;61.30;;;;;;5034398;28;20452;-70
2022/06/11 06:35:23;;;;;;;11.50;10.30;;;19.20;42.70;;;;;;5035453;28;20891;-68
2022/06/11 06:37:49;;;;;;;14.67;10.87;;;19.20;41.70;;;;;;5034094;28;20164;-66
2022/06/11 06:40:15;;;;;;;19.37;11.40;;;19.30;31.40;;;;;;5035509;28;20163;-66
2022/06/11 06:42:41;;;;;;;16.57;10.83;;;19.30;21.50;;;;;;5035323;28;20525;-70
2022/06/11 06:45:07;;;;;;;13.20;11.27;;;19.30;11.00;;;;;;5034792;28;20454;-67
2022/06/11 06:47:33;;;;;;;12.60;10.23;;;19.30;2.60;;;;;;5034414;28;20438;-71
2022/06/11 06:49:59;;;;;;;11.17;9.93;;;19.40;1.00;;;;;;5035212;28;20824;-71
2022/06/11 06:52:24;;;;;;;11.40;10.10;;;19.50;1.00;;;;;;5035390;28;20175;-67
2022/06/11 06:54:50;;;;;;;16.10;11.20;;;19.50;1.00;;;;;;5034877;28;20533;-71
2022/06/11 06:57:16;;;;;;;17.90;11.23;;;19.50;1.00;;;;;;5035964;28;20187;-69
2022/06/11 06:59:42;;;;;;;13.57;9.87;;;19.60;1.00;;;;;;5044031;28;20195;-67
2022/06/11 07:02:10;;;;;;;11.33;9.83;;;19.60;1.00;;;;;;5055818;28;20436;-71
2022/06/11 07:04:37;;;;;;;10.87;8.47;;;19.60;1.00;;;;;;5047232;28;20678;-71
2022/06/11 07:07:03;;;;;;;10.17;8.60;;;19.70;1.00;;;;;;5034062;28;20399;-71
2022/06/11 07:09:29;;;;;;;19.63;9.27;;;19.50;1.00;;;;;;5034853;28;20430;-67
2022/06/11 07:11:55;;;;;;;12.33;9.20;;;19.40;1.00;;;;;;5034359;28;20402;-67
2022/06/11 07:14:21;;;;;;;12.57;8.70;;;19.40;1.00;;;;;;5034957;28;20417;-71
2022/06/11 07:16:53;;;;;;;10.07;8.73;;;19.50;1.00;;;;;;5034054;28;20890;-67
2022/06/11 07:19:32;;;;;;;14.23;8.33;;;19.50;1.00;;;;;;5033977;28;20543;-67
2022/06/11 07:22:06;;;;;;;11.70;10.60;;;19.50;1.00;;;;;;5034522;28;20426;-69
2022/06/11 07:24:35;;;;;;;13.47;8.70;;;19.40;1.00;;;;;;5051278;28;20453;-72
2022/06/11 07:27:07;;;;;;;10.07;9.00;;;19.40;1.00;;;;;;5053499;28;20408;-70
2022/06/11 07:29:56;;;;;;;11.13;9.40;;;19.50;1.00;;;;;;5051845;28;20499;-74
2022/06/11 07:32:24;;;;;;;10.70;9.60;;;19.40;1.00;;;;;;5054393;28;20400;-72
2022/06/11 07:34:50;;;;;;;14.70;9.37;;;19.40;1.00;;;;;;5054159;28;20410;-72
2022/06/11 07:37:17;;;;;;;11.43;8.00;;;19.30;1.00;;;;;;5053412;28;20451;-72
2022/06/11 07:39:43;;;;;;;11.83;8.23;;;19.40;1.00;;;;;;5054106;28;20221;-68
2022/06/11 07:42:10;;;;;;;8.90;8.00;;;19.40;1.00;;;;;;5054191;28;20727;-70
2022/06/11 07:44:36;;;;;;;8.60;7.70;;;19.50;1.00;;;;;;5052032;28;20465;-68
2022/06/11 07:47:02;;;;;;;10.87;7.60;;;19.60;1.00;;;;;;5053159;28;20405;-67
2022/06/11 07:49:28;;;;;;;7.03;6.47;;;19.60;1.00;;;;;;5054036;28;20432;-67
2022/06/11 07:51:54;;;;;;;9.67;7.47;;;19.60;1.00;;;;;;5052877;28;20429;-74
2022/06/11 07:54:20;;;;;;;8.27;6.20;;;19.70;1.00;;;;;;5053877;28;20197;-69
2022/06/11 07:56:46;;;;;;;7.10;6.40;;;19.80;1.00;;;;;;5053059;28;20883;-73
2022/06/11 07:59:12;;;;;;;9.20;6.17;;;20.00;1.00;;;;;;5053853;28;20244;-74
2022/06/11 08:01:37;;;;;;;7.23;6.10;;;20.10;1.00;;;;;;5051603;28;20425;-73
2022/06/11 08:04:03;;;;;;;7.17;4.77;;;20.20;99.90;;;;;;5053580;28;20194;-74
2022/06/11 08:06:31;;;;;;;6.50;4.27;;;20.30;99.90;;;;;;5052959;28;20190;-70
2022/06/11 08:08:57;;;;;;;6.23;4.57;;;20.30;99.90;;;;;;5053640;28;20667;-73
2022/06/11 08:11:23;;;;;;;4.43;4.07;;;20.20;99.90;;;;;;5053778;28;20908;-74
2022/06/11 08:13:48;;;;;;;5.40;4.90;;;20.20;99.90;;;;;;5053770;28;20394;-68
2022/06/11 08:16:14;;;;;;;4.60;4.20;;;20.30;99.90;;;;;;5050298;28;20190;-69
2022/06/11 08:18:41;;;;;;;11.23;5.17;;;20.40;99.90;;;;;;5031074;28;20526;-74
2022/06/11 08:21:08;;;;;;;4.70;4.10;;;20.50;99.90;;;;;;5048195;28;20495;-69
2022/06/11 08:23:34;;;;;;;9.57;4.53;;;20.40;99.90;;;;;;5053493;28;20464;-68
2022/06/11 08:26:00;;;;;;;4.77;4.37;;;20.20;99.90;;;;;;5053629;28;20393;-74
2022/06/11 08:28:26;;;;;;;12.40;4.80;;;20.20;99.90;;;;;;5052378;28;20418;-69
2022/06/11 08:30:52;;;;;;;4.27;3.93;;;20.30;99.90;;;;;;5053634;28;20393;-74
2022/06/11 08:33:18;;;;;;;4.47;4.03;;;20.30;99.90;;;;;;5044015;28;20186;-69
2022/06/11 08:35:44;;;;;;;9.17;4.73;;;20.30;99.90;;;;;;5033209;28;20168;-69
2022/06/11 08:38:11;;;;;;;6.80;4.03;;;20.30;99.90;;;;;;5031147;28;20797;-69
2022/06/11 08:40:53;;;;;;;5.53;4.43;;;20.40;99.90;;;;;;5033353;28;20887;-68
2022/06/11 08:43:24;;;;;;;4.40;4.00;;;20.60;99.90;;;;;;5033290;28;20445;-69
2022/06/11 08:45:51;;;;;;;5.80;3.33;;;20.70;99.90;;;;;;5033278;28;20402;-70
2022/06/11 08:48:26;;;;;;;9.40;4.13;;;20.70;99.90;;;;;;5031990;28;20425;-68
2022/06/11 08:51:21;;;;;;;6.10;3.60;;;20.90;99.90;;;;;;5033271;28;20436;-68
2022/06/11 08:53:48;;;;;;;6.87;4.10;;;20.90;99.90;;;;;;5031445;28;20902;-73
2022/06/11 08:56:23;;;;;;;5.67;3.40;;;20.80;99.90;;;;;;5032849;28;20406;-74
2022/06/11 08:58:49;;;;;;;7.70;4.40;;;20.80;99.90;;;;;;5032341;28;20422;-68
2022/06/11 09:01:29;;;;;;;5.40;4.00;;;20.60;99.90;;;;;;5033173;28;20410;-68
2022/06/11 09:04:05;;;;;;;6.70;4.10;;;20.50;99.90;;;;;;5033020;28;20180;-73
2022/06/11 09:06:43;;;;;;;6.43;3.80;;;20.40;99.90;;;;;;5043716;28;20475;-69
2022/06/11 09:09:32;;;;;;;6.70;5.27;;;20.30;99.90;;;;;;5053157;28;20925;-69
2022/06/11 09:12:19;;;;;;;6.17;4.90;;;20.10;99.90;;;;;;5052431;28;20405;-73
2022/06/11 09:50:22;;;;;;;7.53;3.40;;;21.70;99.90;;;;;;5071529;28;20556;-65
2022/06/11 09:52:57;;;;;;;4.27;3.87;;;22.10;99.90;;;;;;5070659;28;20393;-67
2022/06/11 09:55:43;;;;;;;6.87;3.33;;;22.60;99.90;;;;;;5069609;28;20488;-70
2022/06/11 09:58:59;;;;;;;5.20;4.10;;;22.90;99.90;;;;;;5069670;28;20512;-71
2022/06/11 10:01:32;;;;;;;4.93;3.20;;;22.70;99.90;;;;;;5012010;28;20411;-70
2022/06/11 10:04:21;;;;;;;6.63;3.23;;;23.20;99.90;;;;;;5048879;28;20412;-67
2022/06/11 10:06:57;;;;;;;3.90;3.10;;;23.60;99.90;;;;;;5069574;28;20461;-71
2022/06/11 10:09:52;;;;;;;5.40;3.73;;;23.90;99.90;;;;;;5070138;28;20451;-65
2022/06/11 10:12:29;;;;;;;5.50;3.53;;;23.80;99.90;;;;;;5052927;28;20436;-71
2022/06/11 10:15:03;;;;;;;6.50;3.37;;;24.10;99.90;;;;;;5070246;28;20404;-73
2022/06/11 10:17:38;;;;;;;4.83;3.10;;;24.20;99.90;;;;;;5051621;28;20416;-66
2022/06/11 10:20:19;;;;;;;5.97;3.20;;;23.70;99.90;;;;;;5070322;28;20420;-66
2022/06/11 10:22:55;;;;;;;5.77;3.50;;;23.80;99.90;;;;;;5069720;28;20419;-68
2022/06/11 10:25:47;;;;;;;5.47;3.10;;;23.90;99.90;;;;;;5070117;28;20488;-73
2022/06/11 10:28:22;;;;;;;3.03;2.80;;;24.00;99.90;;;;;;5067740;28;20468;-70
2022/06/11 10:30:59;;;;;;;3.83;3.07;;;24.40;99.90;;;;;;5070145;28;20445;-75
2022/06/11 10:33:30;;;;;;;4.70;3.10;;;24.80;99.90;;;;;;5052364;28;20462;-75
2022/06/11 10:36:05;;;;;;;8.20;2.80;;;25.20;99.90;;;;;;5069849;28;20394;-75
2022/06/11 10:38:34;;;;;;;8.87;3.70;;;25.10;97.60;;;;;;5068826;28;20464;-69
2022/06/11 10:41:03;;;;;;;3.73;3.43;;;25.00;97.60;;;;;;5069391;28;20747;-68
2022/06/11 10:43:42;;;;;;;6.53;2.93;;;25.20;97.60;;;;;;5069627;28;20409;-69
2022/06/11 10:46:10;;;;;;;6.27;2.80;;;25.00;97.60;;;;;;5068405;28;20428;-69
2022/06/11 10:48:37;;;;;;;5.00;3.30;;;24.80;97.50;;;;;;5068563;28;20460;-66
2022/06/11 10:51:21;;;;;;;7.20;3.30;;;25.00;97.60;;;;;;5069516;28;20393;-73
2022/06/11 10:54:09;;;;;;;9.33;3.53;;;25.00;98.70;;;;;;5069445;28;20429;-67
2022/06/11 10:56:50;;;;;;;3.60;3.17;;;25.30;97.40;;;;;;5068439;28;20405;-73
2022/06/11 10:59:22;;;;;;;7.33;2.63;;;25.40;94.20;;;;;;5067190;28;20774;-71
2022/06/11 11:01:57;;;;;;;4.30;1.90;;;25.00;91.70;;;;;;5037008;28;20945;-72
2022/06/11 11:04:41;;;;;;;2.00;1.80;;;25.10;83.70;;;;;;5056223;28;20397;-68
2022/06/11 11:07:19;;;;;;;3.10;2.10;;;25.30;80.70;;;;;;5055207;28;20413;-73
2022/06/11 11:09:46;;;;;;;5.77;2.60;;;25.00;72.50;;;;;;5055758;28;20496;-73
2022/06/11 11:12:29;;;;;;;5.23;2.27;;;25.00;72.00;;;;;;5055896;28;20397;-67
2022/06/11 11:15:12;;;;;;;4.33;2.50;;;25.60;79.30;;;;;;5056018;28;20886;-70
2022/06/11 11:17:56;;;;;;;5.47;2.50;;;26.40;79.10;;;;;;5053243;28;20429;-71
2022/06/11 11:20:34;;;;;;;12.83;2.80;;;26.20;68.60;;;;;;5054909;28;20438;-72
2022/06/11 11:23:09;;;;;;;5.27;3.00;;;26.00;67.40;;;;;;5055854;28;20401;-76
2022/06/11 11:25:45;;;;;;;8.10;2.90;;;26.60;72.60;;;;;;5055645;28;20408;-75
2022/06/11 11:28:38;;;;;;;4.97;2.90;;;27.10;72.10;;;;;;5054627;28;20453;-77
2022/06/11 11:31:03;;;;;;;6.43;2.70;;;27.10;64.70;;;;;;5054497;28;20770;-76
2022/06/11 11:33:33;;;;;;;5.37;2.90;;;27.50;66.10;;;;;;5055446;28;20398;-76
2022/06/11 11:36:09;;;;;;;6.30;2.77;;;27.00;64.90;;;;;;5052264;28;20186;-70
2022/06/11 11:38:34;;;;;;;5.83;2.87;;;27.20;69.70;;;;;;5054553;28;20417;-69
2022/06/11 11:41:02;;;;;;;6.40;2.83;;;27.70;71.10;;;;;;5055492;28;20727;-69
2022/06/11 11:43:41;;;;;;;5.10;3.43;;;28.10;70.60;;;;;;5055511;28;20670;-76
2022/06/11 11:46:12;;;;;;;5.20;2.77;;;27.60;64.20;;;;;;5055310;28;20500;-70
2022/06/11 11:48:52;;;;;;;7.10;3.00;;;27.20;62.00;;;;;;5053076;28;20468;-74
2022/06/11 11:51:40;;;;;;;6.83;3.17;;;26.80;64.00;;;;;;5055274;28;20404;-75
2022/06/11 11:54:17;;;;;;;6.60;3.23;;;27.20;65.50;;;;;;5054627;28;20431;-73
2022/06/11 11:56:59;;;;;;;6.30;3.10;;;26.60;62.30;;;;;;5054230;28;20424;-67
2022/06/11 11:59:31;;;;;;;4.50;3.10;;;26.20;62.70;;;;;;5037304;28;20523;-73
2022/06/11 12:02:24;;;;;;;8.20;3.30;;;25.70;61.40;;;;;;5054991;28;20401;-67
2022/06/11 12:05:07;;;;;;;8.60;2.87;;;25.60;64.10;;;;;;5053158;28;20456;-74
2022/06/11 12:07:38;;;;;;;8.50;2.43;;;26.30;70.60;;;;;;5053935;28;20413;-74
2022/06/11 12:10:16;;;;;;;5.33;2.90;;;26.90;67.50;;;;;;5037054;28;20579;-70
2022/06/11 12:12:44;;;;;;;4.20;2.70;;;27.30;69.30;;;;;;5053375;28;20496;-76
2022/06/11 12:15:18;;;;;;;9.80;3.13;;;27.70;66.80;;;;;;5054832;28;20962;-74
2022/06/11 12:17:52;;;;;;;9.20;2.80;;;27.30;63.40;;;;;;5035790;28;20437;-68
2022/06/11 12:20:26;;;;;;;6.70;2.90;;;26.80;60.90;;;;;;5035878;28;21025;-71
2022/06/11 12:23:16;;;;;;;5.30;2.70;;;27.00;65.00;;;;;;5054813;28;20488;-75
2022/06/11 12:26:00;;;;;;;5.77;2.20;;;27.10;62.80;;;;;;5036777;28;20476;-76
2022/06/11 12:28:35;;;;;;;9.90;3.90;;;27.70;58.40;;;;;;5053353;28;20860;-70
2022/06/11 12:31:01;;;;;;;5.73;2.70;;;28.00;60.10;;;;;;5054434;28;20401;-76
2022/06/11 12:33:27;;;;;;;5.90;2.60;;;28.50;57.70;;;;;;5054189;28;20448;-76
2022/06/11 12:36:12;;;;;;;8.33;2.50;;;28.20;48.90;;;;;;5054586;28;20401;-67
2022/06/11 12:39:01;;;;;;;6.70;2.60;;;27.60;40.60;;;;;;5053330;28;20946;-76
2022/06/11 12:41:56;;;;;;;8.97;2.80;;;27.10;34.80;;;;;;5054277;28;20396;-76
2022/06/11 12:44:43;;;;;;;7.70;2.50;;;27.20;33.10;;;;;;5054204;28;20394;-67
2022/06/11 12:47:24;;;;;;;6.57;2.37;;;26.80;28.30;;;;;;5053058;28;20495;-75
2022/06/11 12:50:15;;;;;;;4.27;2.47;;;27.10;29.50;;;;;;5053688;28;20452;-70
2022/06/11 12:52:57;;;;;;;7.50;2.60;;;27.20;24.40;;;;;;5054017;28;20412;-70
2022/06/11 12:55:58;;;;;;;11.93;2.93;;;27.20;24.00;;;;;;5036190;28;20410;-70
2022/06/11 12:58:44;;;;;;;10.43;2.80;;;26.80;24.20;;;;;;5052878;28;20446;-70
2022/06/11 13:01:22;;;;;;;4.37;1.80;;;26.50;19.50;;;;;;5054109;28;20414;-69
2022/06/11 13:03:56;;;;;;;14.00;4.27;;;26.60;17.30;;;;;;5036272;28;20421;-68
2022/06/11 13:06:43;;;;;;;8.33;2.20;;;26.90;21.30;;;;;;5052215;28;20902;-72
2022/06/11 13:09:24;;;;;;;9.27;3.17;;;27.30;17.80;;;;;;5015926;28;20437;-75
2022/06/11 13:11:52;;;;;;;11.40;3.00;;;27.90;19.80;;;;;;5033829;28;20484;-74
2022/06/11 13:15:05;;;;;;;9.50;2.97;;;28.00;18.40;;;;;;5033736;28;20399;-70
2022/06/11 13:17:49;;;;;;;11.80;2.10;;;27.40;13.00;;;;;;5032812;28;20410;-72
2022/06/11 13:20:48;;;;;;;8.17;2.53;;;26.60;5.00;;;;;;5033800;28;20406;-75
2022/06/11 13:23:46;;;;;;;11.83;4.23;;;26.70;4.50;;;;;;5002513;28;20422;-70
2022/06/11 13:26:20;;;;;;;6.33;1.80;;;27.10;8.10;;;;;;4996281;28;20417;-74
2022/06/11 13:29:16;;;;;;;8.27;2.40;;;27.00;1.00;;;;;;5032713;28;20465;-71
2022/06/11 13:31:48;;;;;;;5.73;2.33;;;26.50;1.00;;;;;;5033520;28;20399;-69
2022/06/11 13:34:26;;;;;;;9.80;2.40;;;26.50;1.00;;;;;;5016070;28;20445;-74
2022/06/11 13:37:29;;;;;;;12.47;2.50;;;26.90;1.00;;;;;;5032498;28;20489;-75
2022/06/11 13:40:32;;;;;;;11.17;2.10;;;26.50;1.00;;;;;;5033303;28;20503;-71
2022/06/11 13:43:12;;;;;;;6.67;2.07;;;26.30;1.00;;;;;;5032802;28;20410;-76
2022/06/11 13:45:50;;;;;;;5.37;2.17;;;25.70;1.00;;;;;;5033242;28;20402;-66